Terminal Aerodrome Forecast
Issued by NWS Bismarck, ND

Home | Current Version | Previous Version | Graphics & Text | Print | Product List | Glossary On
Versions: 1 2 3 4 5 6 7 8 9 10 11 12 13 14 15 16 17 18 19 20 21 22 23 24 25 26
749
FTUS43 KBIS 191450 AAC
TAFBIS
TAF AMD
KBIS 191450Z 1915/2012 00000KT 1SM BR OVC002
     FM191600 11006KT 6SM BR BKN008
     FM191800 11008KT P6SM SCT015
     FM192000 10008KT P6SM FEW030
     FM200100 10007KT P6SM SCT180=

USA.gov is the U.S. government's official web portal to all federal, state and local government web resources and services.